createdAt,value
2023-01-15T00:01:26.208Z,7.40
2023-01-15T00:03:54.684Z,7.40
2023-01-15T00:06:22.542Z,7.40
2023-01-15T00:08:50.186Z,7.40
2023-01-15T00:11:17.592Z,7.40
2023-01-15T00:13:44.733Z,7.50
2023-01-15T00:16:18.073Z,7.50
2023-01-15T00:18:52.227Z,7.50
2023-01-15T00:21:19.350Z,7.50
2023-01-15T00:23:46.190Z,7.50
2023-01-15T00:26:17.804Z,7.50
2023-01-15T00:28:44.615Z,7.50
2023-01-15T00:31:14.440Z,7.50
2023-01-15T00:33:41.505Z,7.60
2023-01-15T00:36:08.470Z,7.60
2023-01-15T00:38:35.269Z,7.60
2023-01-15T00:41:02.034Z,7.60
2023-01-15T00:43:28.850Z,7.60
2023-01-15T00:45:55.575Z,7.60
2023-01-15T00:48:22.316Z,7.60
2023-01-15T00:50:49.069Z,7.60
2023-01-15T00:53:15.933Z,7.70
2023-01-15T00:55:43.862Z,7.60
2023-01-15T00:58:10.624Z,7.70
2023-01-15T01:00:37.542Z,7.70
2023-01-15T01:03:07.002Z,7.70
2023-01-15T01:05:33.795Z,7.70
2023-01-15T01:08:00.602Z,7.70
2023-01-15T01:10:27.861Z,7.70
2023-01-15T01:12:54.644Z,7.70
2023-01-15T01:15:22.764Z,7.70
2023-01-15T01:17:49.651Z,7.70
2023-01-15T01:20:18.355Z,7.70
2023-01-15T01:22:48.373Z,7.80
2023-01-15T01:25:15.184Z,7.80
2023-01-15T01:27:45.414Z,7.80
2023-01-15T01:30:12.925Z,7.90
2023-01-15T01:32:39.933Z,7.90
2023-01-15T01:35:06.959Z,7.90
2023-01-15T01:37:33.652Z,7.90
2023-01-15T01:40:00.442Z,7.90
2023-01-15T01:42:27.225Z,8.00
2023-01-15T01:45:17.091Z,8.00
2023-01-15T01:47:44.563Z,8.00
2023-01-15T01:50:13.459Z,8.00
2023-01-15T01:52:48.738Z,8.00
2023-01-15T01:55:17.943Z,8.00
2023-01-15T01:57:46.879Z,8.00
2023-01-15T02:00:14.346Z,8.00
2023-01-15T02:02:44.112Z,8.10
2023-01-15T02:05:21.486Z,8.00
2023-01-15T02:07:48.247Z,8.00
2023-01-15T02:10:16.816Z,8.00
2023-01-15T02:12:49.465Z,7.90
2023-01-15T02:15:24.804Z,8.00
2023-01-15T02:18:30.134Z,7.90
2023-01-15T02:21:05.622Z,7.90
2023-01-15T02:24:03.666Z,7.90
2023-01-15T02:27:02.029Z,7.80
2023-01-15T02:29:44.559Z,7.80
2023-01-15T02:32:22.350Z,7.80
2023-01-15T02:34:54.650Z,7.70
2023-01-15T02:37:28.586Z,7.70
2023-01-15T02:39:58.217Z,7.70
2023-01-15T02:42:27.912Z,7.70
2023-01-15T02:44:58.586Z,7.70
2023-01-15T02:47:33.099Z,7.70
2023-01-15T02:50:05.299Z,7.60
2023-01-15T02:52:38.812Z,7.60
2023-01-15T02:55:18.142Z,7.60
2023-01-15T02:57:47.902Z,7.60
2023-01-15T03:00:17.431Z,7.60
2023-01-15T03:02:49.755Z,7.60
2023-01-15T03:05:26.260Z,7.60
2023-01-15T03:07:57.412Z,7.60
2023-01-15T03:10:57.199Z,7.50
2023-01-15T03:13:34.899Z,7.60
2023-01-15T03:16:04.024Z,7.50
2023-01-15T03:18:42.196Z,7.50
2023-01-15T03:21:13.619Z,7.50
2023-01-15T03:23:47.283Z,7.50
2023-01-15T03:26:14.141Z,7.50
2023-01-15T03:28:41.866Z,7.50
2023-01-15T03:31:08.896Z,7.50
2023-01-15T03:33:36.045Z,7.50
2023-01-15T03:36:02.953Z,7.50
2023-01-15T03:38:41.201Z,7.50
2023-01-15T03:41:35.433Z,7.60
2023-01-15T03:44:30.140Z,7.50
2023-01-15T03:47:16.795Z,7.50
2023-01-15T03:50:11.646Z,7.50
2023-01-15T03:53:00.100Z,7.50
2023-01-15T03:55:47.545Z,7.50
2023-01-15T03:58:20.668Z,7.50
2023-01-15T04:00:57.190Z,7.50
2023-01-15T04:03:26.174Z,7.60
2023-01-15T04:05:56.468Z,7.60
2023-01-15T04:08:26.552Z,7.60
2023-01-15T04:10:54.236Z,7.60
2023-01-15T04:13:21.585Z,7.60
2023-01-15T04:15:48.547Z,7.60
2023-01-15T04:18:15.220Z,7.60
2023-01-15T04:20:41.920Z,7.30
2023-01-15T04:23:08.890Z,7.10
2023-01-15T04:25:35.617Z,6.90
2023-01-15T04:28:02.300Z,6.70
2023-01-15T04:30:29.022Z,6.50
2023-01-15T04:32:55.735Z,6.50
2023-01-15T04:35:22.461Z,6.40
2023-01-15T04:37:49.228Z,6.30
2023-01-15T04:40:16.048Z,6.10
2023-01-15T04:42:42.708Z,6.00
2023-01-15T04:45:09.993Z,5.70
2023-01-15T04:47:36.647Z,5.50
2023-01-15T04:50:03.365Z,5.40
2023-01-15T04:52:30.050Z,5.20
2023-01-15T04:54:56.707Z,5.10
2023-01-15T04:57:23.716Z,5.00
2023-01-15T04:59:50.380Z,4.90
2023-01-15T05:02:17.244Z,4.80
2023-01-15T05:04:44.146Z,4.80
2023-01-15T05:07:10.936Z,4.80
2023-01-15T05:09:37.587Z,4.70
2023-01-15T05:12:04.603Z,4.70
2023-01-15T05:14:31.625Z,4.70
2023-01-15T05:16:58.304Z,4.70
2023-01-15T05:19:24.979Z,4.70
2023-01-15T05:21:51.717Z,4.70
2023-01-15T05:24:19.218Z,4.70
2023-01-15T05:26:45.899Z,4.80
2023-01-15T05:29:13.679Z,4.80
2023-01-15T05:31:41.089Z,4.80
2023-01-15T05:34:07.841Z,4.70
2023-01-15T05:36:34.599Z,4.70
2023-01-15T05:39:01.242Z,4.80
2023-01-15T05:41:28.568Z,4.80
2023-01-15T05:43:57.050Z,4.80
2023-01-15T05:46:23.818Z,4.70
2023-01-15T05:48:50.670Z,4.80
2023-01-15T05:51:17.440Z,4.80
2023-01-15T05:53:44.338Z,4.80
2023-01-15T05:56:11.583Z,4.80
2023-01-15T05:58:38.363Z,4.80
2023-01-15T06:01:09.936Z,4.80
2023-01-15T06:03:37.022Z,4.80
2023-01-15T06:06:04.433Z,4.70
2023-01-15T06:08:31.122Z,4.70
2023-01-15T06:10:57.807Z,4.80
2023-01-15T06:13:24.538Z,4.80
2023-01-15T06:15:51.195Z,4.80
2023-01-15T06:18:17.883Z,4.80
2023-01-15T06:20:44.640Z,4.80
2023-01-15T06:23:11.303Z,4.80
2023-01-15T06:25:38.007Z,4.80
2023-01-15T06:28:06.315Z,4.80
2023-01-15T06:30:34.039Z,4.90
2023-01-15T06:33:01.375Z,4.90
2023-01-15T06:35:28.098Z,4.90
2023-01-15T06:37:54.806Z,4.90
2023-01-15T06:40:21.739Z,4.90
2023-01-15T06:42:48.529Z,4.90
2023-01-15T06:45:15.291Z,5.00
2023-01-15T06:47:41.979Z,5.00
2023-01-15T06:50:09.726Z,5.00
2023-01-15T06:52:36.384Z,5.00
2023-01-15T06:55:03.083Z,5.00
2023-01-15T06:57:29.823Z,5.00
2023-01-15T06:59:56.540Z,5.00
2023-01-15T07:02:23.255Z,5.00
2023-01-15T07:04:50.831Z,4.90
2023-01-15T07:07:19.295Z,4.90
2023-01-15T07:09:46.057Z,4.90
2023-01-15T07:12:12.907Z,4.90
2023-01-15T07:14:39.842Z,4.90
2023-01-15T07:17:06.700Z,4.90
2023-01-15T07:19:33.452Z,4.90
2023-01-15T07:22:00.197Z,5.00
2023-01-15T07:24:26.978Z,4.90
2023-01-15T07:26:53.791Z,5.00
2023-01-15T07:29:20.547Z,5.00
2023-01-15T07:31:47.402Z,4.90
2023-01-15T07:34:14.208Z,4.90
2023-01-15T07:36:41.366Z,4.90
2023-01-15T07:39:09.645Z,4.80
2023-01-15T07:41:36.408Z,4.90
2023-01-15T07:44:03.225Z,4.90
2023-01-15T07:46:30.557Z,4.90
2023-01-15T07:48:57.231Z,4.90
2023-01-15T07:51:24.321Z,4.90
2023-01-15T07:53:51.073Z,4.90
2023-01-15T07:56:17.903Z,4.90
2023-01-15T07:58:44.764Z,4.90
2023-01-15T08:01:11.759Z,4.90
2023-01-15T08:03:38.674Z,4.90
2023-01-15T08:06:05.605Z,4.90
2023-01-15T08:08:32.297Z,4.90
2023-01-15T08:11:03.302Z,4.90
2023-01-15T08:13:30.388Z,4.90
2023-01-15T08:15:57.055Z,5.00
2023-01-15T08:18:23.716Z,4.90
2023-01-15T08:20:50.438Z,4.90
2023-01-15T08:23:17.129Z,5.00
2023-01-15T08:25:43.864Z,5.00
2023-01-15T08:28:11.976Z,5.00
2023-01-15T08:30:38.905Z,5.00
2023-01-15T08:33:05.970Z,5.00
2023-01-15T08:35:32.772Z,5.00
2023-01-15T08:37:59.445Z,5.00
2023-01-15T08:40:26.187Z,5.00
2023-01-15T08:42:56.443Z,5.00
2023-01-15T08:45:23.794Z,5.00
2023-01-15T08:47:54.211Z,5.00
2023-01-15T08:50:20.974Z,5.00
2023-01-15T08:52:47.713Z,5.00
2023-01-15T08:55:14.424Z,5.00
2023-01-15T08:57:41.077Z,5.00
2023-01-15T09:00:08.481Z,5.10
2023-01-15T09:02:35.167Z,5.00
2023-01-15T09:05:02.097Z,5.10
2023-01-15T09:07:28.870Z,5.10
2023-01-15T09:09:55.631Z,5.10
2023-01-15T09:12:22.327Z,5.10
2023-01-15T09:14:59.484Z,5.10
2023-01-15T09:17:30.568Z,5.20
2023-01-15T09:19:57.471Z,5.20
2023-01-15T09:22:24.233Z,5.20
2023-01-15T09:24:52.928Z,5.20
2023-01-15T09:27:19.703Z,5.30
2023-01-15T09:29:46.472Z,5.30
2023-01-15T09:32:13.208Z,5.30
2023-01-15T09:34:39.951Z,5.30
2023-01-15T09:37:06.676Z,5.40
2023-01-15T09:39:33.440Z,5.40
2023-01-15T09:42:29.120Z,5.50
2023-01-15T09:45:20.458Z,5.40
2023-01-15T09:47:52.908Z,5.40
2023-01-15T09:50:22.621Z,5.50
2023-01-15T09:53:13.659Z,5.40
2023-01-15T09:55:48.600Z,5.50
2023-01-15T09:58:19.803Z,5.40
2023-01-15T10:00:49.228Z,5.40
2023-01-15T10:03:42.722Z,5.50
2023-01-15T10:06:24.100Z,5.60
2023-01-15T10:08:52.640Z,5.50
2023-01-15T10:11:35.965Z,5.60
2023-01-15T10:14:11.133Z,5.60
2023-01-15T10:16:37.843Z,5.60
2023-01-15T10:19:04.556Z,5.60
2023-01-15T10:21:35.565Z,5.60
2023-01-15T10:24:12.302Z,5.60
2023-01-15T10:26:58.993Z,5.70
2023-01-15T10:29:45.204Z,5.70
2023-01-15T10:32:20.860Z,5.80
2023-01-15T10:35:12.172Z,5.80
2023-01-15T10:38:19.936Z,5.80
2023-01-15T10:41:05.589Z,5.90
2023-01-15T10:43:41.920Z,5.90
2023-01-15T10:46:17.541Z,5.90
2023-01-15T10:48:52.945Z,6.00
2023-01-15T10:51:23.846Z,6.00
2023-01-15T10:53:53.678Z,6.00
2023-01-15T10:56:26.241Z,6.10
2023-01-15T10:58:57.189Z,6.10
2023-01-15T11:01:26.696Z,6.10
2023-01-15T11:03:54.384Z,6.20
2023-01-15T11:06:23.606Z,6.20
2023-01-15T11:09:11.666Z,6.20
2023-01-15T11:11:38.924Z,6.20
2023-01-15T11:14:05.618Z,6.20
2023-01-15T11:16:32.354Z,6.30
2023-01-15T11:19:02.911Z,6.30
2023-01-15T11:21:31.017Z,6.30
2023-01-15T11:24:00.120Z,6.30
2023-01-15T11:26:32.327Z,6.30
2023-01-15T11:29:11.768Z,6.30
2023-01-15T11:31:40.141Z,6.20
2023-01-15T11:34:20.866Z,6.30
2023-01-15T11:36:49.377Z,6.20
2023-01-15T11:39:27.209Z,6.30
2023-01-15T11:42:15.542Z,6.30
2023-01-15T11:44:51.368Z,6.20
2023-01-15T11:47:19.974Z,6.30
2023-01-15T11:49:51.107Z,6.30
2023-01-15T11:52:23.875Z,6.30
2023-01-15T11:54:54.784Z,6.20
2023-01-15T11:57:32.959Z,6.20
2023-01-15T11:59:59.735Z,6.30
2023-01-15T12:02:34.392Z,6.30
2023-01-15T12:05:03.411Z,6.30
2023-01-15T12:07:30.363Z,6.20
2023-01-15T12:10:16.412Z,6.20
2023-01-15T12:13:09.355Z,6.20
2023-01-15T12:16:08.450Z,6.20
2023-01-15T12:21:43.434Z,6.30
2023-01-15T12:24:32.065Z,6.20
2023-01-15T12:27:17.463Z,6.20
2023-01-15T12:29:49.788Z,6.20
2023-01-15T12:32:28.110Z,6.30
2023-01-15T12:35:26.831Z,6.30
2023-01-15T12:38:02.664Z,6.30
2023-01-15T12:40:42.210Z,6.30
2023-01-15T12:43:25.200Z,6.30
2023-01-15T12:45:54.853Z,6.30
2023-01-15T12:48:51.896Z,6.40
2023-01-15T12:51:26.093Z,6.40
2023-01-15T12:54:18.914Z,6.40
2023-01-15T12:57:16.856Z,6.30
2023-01-15T13:00:07.344Z,6.30
2023-01-15T13:02:55.369Z,6.30
2023-01-15T13:05:43.372Z,6.30
2023-01-15T13:08:34.798Z,6.30
2023-01-15T13:11:01.662Z,6.30
2023-01-15T13:13:36.995Z,6.30
2023-01-15T13:16:41.045Z,6.40
2023-01-15T13:19:32.269Z,6.40
2023-01-15T13:22:05.036Z,6.40
2023-01-15T13:24:46.632Z,6.50
2023-01-15T13:27:28.433Z,6.60
2023-01-15T13:30:19.943Z,6.60
2023-01-15T13:32:53.513Z,6.60
2023-01-15T13:35:36.133Z,6.50
2023-01-15T13:38:11.751Z,6.50
2023-01-15T13:40:45.222Z,6.40
2023-01-15T13:43:22.453Z,6.40
2023-01-15T13:45:50.673Z,6.40
2023-01-15T13:48:25.830Z,6.30
2023-01-15T13:51:03.566Z,6.20
2023-01-15T13:53:39.486Z,6.20
2023-01-15T13:56:11.750Z,6.20
2023-01-15T13:58:53.747Z,6.00
2023-01-15T14:01:47.234Z,6.00
2023-01-15T14:04:15.496Z,6.10
2023-01-15T14:06:43.484Z,6.20
2023-01-15T14:09:12.081Z,6.40
2023-01-15T14:11:48.548Z,6.50
2023-01-15T14:14:50.949Z,6.50
2023-01-15T14:17:40.748Z,6.60
2023-01-15T14:20:32.309Z,6.70
2023-01-15T14:23:11.126Z,6.60
2023-01-15T14:26:07.125Z,6.60
2023-01-15T14:28:58.393Z,6.50
2023-01-15T14:31:38.880Z,6.40
2023-01-15T14:34:11.309Z,6.30
2023-01-15T14:37:01.983Z,6.20
2023-01-15T14:39:39.876Z,6.20
2023-01-15T14:42:12.558Z,6.10
2023-01-15T14:44:41.464Z,6.00
2023-01-15T14:47:23.691Z,6.00
2023-01-15T14:50:04.315Z,6.00
2023-01-15T14:52:31.320Z,5.90
2023-01-15T14:54:59.816Z,5.90
2023-01-15T14:57:27.319Z,5.90
2023-01-15T15:00:00.212Z,5.90
2023-01-15T15:02:39.863Z,5.90
2023-01-15T15:05:14.754Z,5.90
2023-01-15T15:07:47.498Z,5.90
2023-01-15T15:10:17.160Z,5.90
2023-01-15T15:12:54.387Z,5.80
2023-01-15T15:15:27.245Z,5.80
2023-01-15T15:18:03.189Z,5.70
2023-01-15T15:20:51.747Z,5.70
2023-01-15T15:23:55.224Z,5.60
2023-01-15T15:26:32.095Z,5.50
2023-01-15T15:29:09.257Z,5.40
2023-01-15T15:31:48.240Z,5.40
2023-01-15T15:34:31.222Z,5.40
2023-01-15T15:37:04.468Z,5.30
2023-01-15T15:40:01.755Z,5.30
2023-01-15T15:42:39.640Z,5.20
2023-01-15T15:45:18.533Z,5.20
2023-01-15T15:47:45.236Z,5.20
2023-01-15T15:50:22.575Z,5.10
2023-01-15T15:52:50.800Z,5.10
2023-01-15T15:55:19.380Z,5.00
2023-01-15T15:57:59.803Z,5.00
2023-01-15T16:00:40.514Z,5.00
2023-01-15T16:03:46.178Z,5.00
2023-01-15T16:06:24.136Z,5.00
2023-01-15T16:08:55.710Z,4.90
2023-01-15T16:11:25.596Z,4.90
2023-01-15T16:13:54.608Z,4.80
2023-01-15T16:16:21.768Z,4.70
2023-01-15T16:18:52.266Z,4.70
2023-01-15T16:21:41.244Z,4.70
2023-01-15T16:24:21.308Z,4.70
2023-01-15T16:27:08.989Z,4.70
2023-01-15T16:29:36.036Z,4.70
2023-01-15T16:32:13.662Z,4.70
2023-01-15T16:34:41.183Z,4.70
2023-01-15T16:37:29.762Z,4.60
2023-01-15T16:39:59.497Z,4.60
2023-01-15T16:42:46.479Z,4.50
2023-01-15T16:45:23.627Z,4.60
2023-01-15T16:48:08.335Z,4.60
2023-01-15T16:50:37.018Z,4.50
2023-01-15T16:53:05.511Z,4.50
2023-01-15T16:55:41.928Z,4.50
2023-01-15T16:58:14.749Z,4.50
2023-01-15T17:00:47.634Z,4.50
2023-01-15T17:03:23.319Z,4.50
2023-01-15T17:05:51.375Z,4.50
2023-01-15T17:08:27.524Z,4.40
2023-01-15T17:11:00.185Z,4.40
2023-01-15T17:13:35.768Z,4.50
2023-01-15T17:16:06.588Z,4.40
2023-01-15T17:18:33.715Z,4.40
2023-01-15T17:21:01.189Z,4.40
2023-01-15T17:23:30.030Z,4.40
2023-01-15T17:25:56.972Z,4.50
2023-01-15T17:28:23.767Z,4.50
2023-01-15T17:30:52.262Z,4.40
2023-01-15T17:33:19.873Z,4.40
2023-01-15T17:35:46.578Z,4.50
2023-01-15T17:38:13.277Z,4.40
2023-01-15T17:40:40.489Z,4.40
2023-01-15T17:43:07.353Z,4.40
2023-01-15T17:45:34.464Z,4.40
2023-01-15T17:48:01.161Z,4.50
2023-01-15T17:50:27.912Z,4.40
2023-01-15T17:52:54.679Z,4.40
2023-01-15T17:55:23.337Z,4.40
2023-01-15T17:57:50.128Z,4.50
2023-01-15T18:00:17.411Z,4.40
2023-01-15T18:02:44.300Z,4.50
2023-01-15T18:05:12.987Z,4.50
2023-01-15T18:07:43.169Z,4.40
2023-01-15T18:10:12.950Z,4.40
2023-01-15T18:12:39.670Z,4.40
2023-01-15T18:15:07.156Z,4.50
2023-01-15T18:17:33.841Z,4.50
2023-01-15T18:20:00.573Z,4.40
2023-01-15T18:22:27.324Z,4.50
2023-01-15T18:24:54.007Z,4.50
2023-01-15T18:27:21.506Z,4.50
2023-01-15T18:29:48.319Z,4.50
2023-01-15T18:32:15.355Z,4.40
2023-01-15T18:34:42.085Z,4.50
2023-01-15T18:37:08.854Z,4.40
2023-01-15T18:39:35.864Z,4.40
2023-01-15T18:42:02.606Z,4.50
2023-01-15T18:44:29.625Z,4.50
2023-01-15T18:46:58.821Z,4.50
2023-01-15T18:49:25.533Z,4.50
2023-01-15T18:51:52.355Z,4.40
2023-01-15T18:54:19.100Z,4.50
2023-01-15T18:56:46.097Z,4.50
2023-01-15T18:59:14.349Z,4.50
2023-01-15T19:01:42.171Z,4.50
2023-01-15T19:04:09.491Z,4.50
2023-01-15T19:06:37.526Z,4.50
2023-01-15T19:09:05.394Z,4.50
2023-01-15T19:11:32.407Z,4.50
2023-01-15T19:13:59.160Z,4.50
2023-01-15T19:16:25.983Z,4.50
2023-01-15T19:18:52.798Z,4.50
2023-01-15T19:21:21.054Z,4.50
2023-01-15T19:23:48.092Z,4.50
2023-01-15T19:26:15.328Z,4.60
2023-01-15T19:28:42.081Z,4.50
2023-01-15T19:31:09.872Z,4.60
2023-01-15T19:33:36.991Z,4.60
2023-01-15T19:36:04.602Z,4.60
2023-01-15T19:38:31.510Z,4.50
2023-01-15T19:40:58.240Z,4.50
2023-01-15T19:43:24.908Z,4.50
2023-01-15T19:45:52.058Z,4.50
2023-01-15T19:48:20.025Z,4.50
2023-01-15T19:50:47.177Z,4.50
2023-01-15T19:53:14.532Z,4.60
2023-01-15T19:55:44.356Z,4.60
2023-01-15T19:58:13.409Z,4.50
2023-01-15T20:00:42.042Z,4.50
2023-01-15T20:03:10.320Z,4.50
2023-01-15T20:05:40.770Z,4.50
2023-01-15T20:08:07.824Z,4.50
2023-01-15T20:10:34.688Z,4.50
2023-01-15T20:13:01.400Z,4.50
2023-01-15T20:15:29.480Z,4.50
2023-01-15T20:17:57.588Z,4.50
2023-01-15T20:20:25.812Z,4.60
2023-01-15T20:22:52.489Z,4.60
2023-01-15T20:25:19.153Z,4.50
2023-01-15T20:27:45.862Z,4.50
2023-01-15T20:30:15.043Z,4.50
2023-01-15T20:32:43.735Z,4.50
2023-01-15T20:35:16.529Z,4.40
2023-01-15T20:37:43.324Z,4.50
2023-01-15T20:40:10.688Z,4.50
2023-01-15T20:42:37.411Z,4.40
2023-01-15T20:45:04.463Z,4.40
2023-01-15T20:47:31.620Z,4.40
2023-01-15T20:50:01.009Z,4.40
2023-01-15T20:52:27.666Z,4.40
2023-01-15T20:54:54.297Z,4.40
2023-01-15T20:57:21.057Z,4.40
2023-01-15T20:59:47.721Z,4.40
2023-01-15T21:02:14.436Z,4.50
2023-01-15T21:04:41.173Z,4.40
2023-01-15T21:07:07.890Z,4.40
2023-01-15T21:09:34.636Z,4.40
2023-01-15T21:12:01.582Z,4.40
2023-01-15T21:14:28.263Z,4.40
2023-01-15T21:16:55.023Z,4.40
2023-01-15T21:19:24.440Z,4.30
2023-01-15T21:21:51.241Z,4.40
2023-01-15T21:24:17.947Z,4.40
2023-01-15T21:26:44.760Z,4.40
2023-01-15T21:29:11.535Z,4.40
2023-01-15T21:31:42.151Z,4.40
2023-01-15T21:34:12.002Z,4.40
2023-01-15T21:36:38.861Z,4.40
2023-01-15T21:39:05.590Z,4.40
2023-01-15T21:41:32.355Z,4.40
2023-01-15T21:43:59.126Z,4.50
2023-01-15T21:46:28.926Z,4.50
2023-01-15T21:48:57.339Z,4.50
2023-01-15T21:51:25.859Z,4.50
2023-01-15T21:53:52.610Z,4.40
2023-01-15T21:56:19.472Z,4.40
2023-01-15T21:58:49.241Z,4.50
2023-01-15T22:01:18.974Z,4.40
2023-01-15T22:03:45.678Z,4.50
2023-01-15T22:06:12.440Z,4.50
2023-01-15T22:08:39.575Z,4.50
2023-01-15T22:11:08.728Z,4.50
2023-01-15T22:13:46.145Z,4.50
2023-01-15T22:16:21.623Z,4.50
2023-01-15T22:18:50.764Z,4.50
2023-01-15T22:21:19.756Z,4.50
2023-01-15T22:23:48.846Z,4.40
2023-01-15T22:26:22.452Z,4.50
2023-01-15T22:28:54.583Z,4.40
2023-01-15T22:31:21.341Z,4.40
2023-01-15T22:33:58.221Z,4.40
2023-01-15T22:36:26.568Z,4.30
2023-01-15T22:38:57.864Z,4.30
2023-01-15T22:41:27.295Z,4.30
2023-01-15T22:43:55.879Z,4.30
2023-01-15T22:46:35.785Z,4.30
2023-01-15T22:49:04.145Z,4.30
2023-01-15T22:51:34.281Z,4.20
2023-01-15T22:54:01.020Z,4.30
2023-01-15T22:56:27.739Z,4.30
2023-01-15T22:58:55.867Z,4.20
2023-01-15T23:01:23.927Z,4.20
2023-01-15T23:03:50.991Z,4.30
2023-01-15T23:06:17.897Z,4.30
2023-01-15T23:08:45.105Z,4.20
2023-01-15T23:11:14.796Z,4.20
2023-01-15T23:13:51.437Z,4.20
2023-01-15T23:16:18.761Z,4.20
2023-01-15T23:18:45.541Z,4.20
2023-01-15T23:21:14.990Z,4.10
2023-01-15T23:23:41.890Z,4.10
2023-01-15T23:26:17.173Z,4.00
2023-01-15T23:28:44.513Z,4.10
2023-01-15T23:31:11.421Z,4.00
2023-01-15T23:33:38.220Z,4.10
2023-01-15T23:36:05.544Z,4.00
2023-01-15T23:38:32.271Z,4.10
2023-01-15T23:40:59.017Z,4.00
2023-01-15T23:43:25.995Z,4.10
2023-01-15T23:45:52.771Z,4.00
2023-01-15T23:48:19.517Z,4.10
2023-01-15T23:50:46.330Z,4.00
2023-01-15T23:53:13.098Z,4.00
2023-01-15T23:55:39.868Z,4.00
2023-01-15T23:58:06.585Z,4.00
